Blooming Grove, New York
Current Conditions -  °F | °C
As of 12:45 AM on Friday 28 Nov 2014 (Local Time) from KSWF Reporting Station
Scattered Clouds Scattered Clouds  
Wind Chill: 19°   Ceiling: Unl
Heat Index: 25°   Visibility: 10mi
Dew Point: 25°   Wind: 5mph
Humidity: 100%   Direction: NA
Pressure: 30.04"   Gusts: NA
Location:  41.41°N, 74.19°W
Report Text: KSWF 280545Z VRB04KT 10SM SCT050 M04/M04 A3004
Loading
Personal Weather Stations






























Interactive Weather Map New forecast layout! Learn more

10-Day Weather Forecast

Advertisements
Track Severe Weather on mobile